Time;durP1;ratioP1;P1;durP2;ratioP2;P2;SDS_P1;SDS_P2;PMS_P1;PMS_P2;Temp;Humidity;BMP_temperature;BMP_pressure;BME280_temperature;BME280_humidity;BME280_pressure;Samples;Min_cycle;Max_cycle;Signal;HPM_P1;HPM_P2
2023/08/28 00:02:25;;;;;;;3.60;1.40;;;;;;;;;;4975440;28;20027;-81
2023/08/28 00:04:51;;;;;;;6.35;1.85;;;;;;;;;;4959213;29;20035;-80
2023/08/28 00:07:16;;;;;;;5.43;1.45;;;;;;;;;;4942609;29;20045;-81
2023/08/28 00:09:43;;;;;;;3.58;1.48;;;;;;;;;;4941626;29;20127;-81
2023/08/28 00:12:09;;;;;;;7.70;1.48;;;;;;;;;;4958757;29;20035;-81
2023/08/28 00:14:34;;;;;;;3.63;1.48;;;;;;;;;;4958380;29;20023;-81
2023/08/28 00:17:00;;;;;;;5.72;1.50;;;;;;;;;;4942820;29;20122;-82
2023/08/28 00:19:25;;;;;;;2.78;1.27;;;;;;;;;;4945306;29;20034;-81
2023/08/28 00:21:51;;;;;;;2.53;1.30;;;;;;;;;;4930669;29;20111;-79
2023/08/28 00:24:18;;;;;;;2.85;1.33;;;;;;;;;;4946298;29;20041;-80
2023/08/28 00:26:44;;;;;;;4.95;1.42;;;;;;;;;;4926763;29;20130;-81
2023/08/28 00:29:10;;;;;;;3.90;1.50;;;;;;;;;;4957841;28;20027;-80
2023/08/28 00:31:36;;;;;;;3.78;1.70;;;;;;;;;;4958775;28;20551;-80
2023/08/28 00:34:01;;;;;;;5.57;1.60;;;;;;;;;;4926834;29;20062;-81
2023/08/28 00:36:28;;;;;;;4.47;1.40;;;;;;;;;;4959017;29;20027;-81
2023/08/28 00:38:54;;;;;;;4.38;1.45;;;;;;;;;;4932394;29;20112;-81
2023/08/28 00:41:20;;;;;;;3.88;1.20;;;;;;;;;;4959128;29;20039;-81
2023/08/28 00:43:45;;;;;;;3.15;1.42;;;;;;;;;;4944828;29;20035;-80
2023/08/28 00:46:13;;;;;;;3.55;1.38;;;;;;;;;;4958927;29;20142;-81
2023/08/28 00:48:39;;;;;;;3.80;1.48;;;;;;;;;;4960570;28;20078;-81
2023/08/28 00:51:05;;;;;;;2.22;0.98;;;;;;;;;;4931632;29;20442;-80
2023/08/28 00:53:32;;;;;;;4.75;1.60;;;;;;;;;;4935739;29;20391;-81
2023/08/28 00:55:59;;;;;;;2.78;1.30;;;;;;;;;;4970780;29;20051;-81
2023/08/28 00:58:25;;;;;;;3.65;1.30;;;;;;;;;;4945479;29;20102;-79
2023/08/28 01:00:51;;;;;;;6.70;1.67;;;;;;;;;;4963102;28;20034;-80
2023/08/28 01:03:17;;;;;;;4.28;1.40;;;;;;;;;;4963384;28;20029;-80
2023/08/28 01:06:02;;;;;;;4.70;1.50;;;;;;;;;;4966670;28;20050;-81
2023/08/28 01:08:30;;;;;;;5.38;1.65;;;;;;;;;;4967077;28;20029;-81
2023/08/28 01:11:02;;;;;;;4.13;1.50;;;;;;;;;;4948862;29;20031;-80
2023/08/28 01:13:36;;;;;;;4.43;1.70;;;;;;;;;;4978022;29;20137;-80
2023/08/28 01:16:03;;;;;;;2.20;1.30;;;;;;;;;;4980743;29;20015;-80
2023/08/28 01:18:28;;;;;;;13.50;3.17;;;;;;;;;;4964986;28;20051;-80
2023/08/28 01:20:57;;;;;;;5.57;1.63;;;;;;;;;;4981213;28;20042;-81
2023/08/28 01:23:42;;;;;;;2.70;1.40;;;;;;;;;;4947899;29;20046;-82
2023/08/28 01:26:07;;;;;;;3.97;1.50;;;;;;;;;;4937427;29;20139;-81
2023/08/28 01:28:33;;;;;;;3.80;1.70;;;;;;;;;;4965589;28;20062;-81
2023/08/28 01:30:59;;;;;;;5.45;1.80;;;;;;;;;;4968283;28;20042;-80
2023/08/28 01:33:24;;;;;;;4.05;1.60;;;;;;;;;;4969801;29;20036;-80
2023/08/28 01:35:55;;;;;;;3.95;1.70;;;;;;;;;;4950884;29;20039;-82
2023/08/28 01:38:27;;;;;;;5.18;1.50;;;;;;;;;;4965388;29;20039;-82
2023/08/28 01:41:01;;;;;;;3.33;1.60;;;;;;;;;;4940788;29;20066;-81
2023/08/28 01:43:35;;;;;;;6.82;1.80;;;;;;;;;;4969727;29;20122;-80
2023/08/28 01:46:04;;;;;;;5.78;2.28;;;;;;;;;;4954916;29;20046;-81
2023/08/28 01:48:30;;;;;;;6.25;1.83;;;;;;;;;;4968794;28;20042;-82
2023/08/28 01:50:57;;;;;;;3.83;1.70;;;;;;;;;;4967795;29;20039;-79
2023/08/28 01:53:23;;;;;;;4.10;1.70;;;;;;;;;;4946751;29;20111;-81
2023/08/28 01:56:07;;;;;;;3.53;1.50;;;;;;;;;;4929573;29;20045;-80
2023/08/28 01:58:43;;;;;;;3.90;1.90;;;;;;;;;;4960289;28;20034;-79
2023/08/28 02:01:09;;;;;;;3.92;1.60;;;;;;;;;;4961566;29;20081;-81
2023/08/28 02:03:34;;;;;;;6.70;1.90;;;;;;;;;;4945776;29;20487;-81
2023/08/28 02:06:00;;;;;;;5.10;1.52;;;;;;;;;;4961544;28;20039;-80
2023/08/28 02:08:26;;;;;;;5.72;1.60;;;;;;;;;;4961092;29;20031;-81
2023/08/28 02:10:52;;;;;;;3.72;1.90;;;;;;;;;;4962746;28;20031;-81
2023/08/28 02:13:17;;;;;;;5.40;1.48;;;;;;;;;;4962102;29;20102;-81
2023/08/28 02:15:43;;;;;;;5.47;1.58;;;;;;;;;;4943446;29;20412;-82
2023/08/28 02:18:11;;;;;;;4.68;2.08;;;;;;;;;;4930114;29;20526;-80
2023/08/28 02:20:37;;;;;;;3.67;1.67;;;;;;;;;;4962151;28;20039;-80
2023/08/28 02:23:03;;;;;;;6.40;1.80;;;;;;;;;;4962864;28;20066;-82
2023/08/28 02:25:29;;;;;;;4.03;1.52;;;;;;;;;;4964531;29;20074;-81
2023/08/28 02:27:54;;;;;;;2.80;1.65;;;;;;;;;;4947359;29;20103;-81
2023/08/28 02:30:20;;;;;;;4.20;1.70;;;;;;;;;;4947611;29;20543;-80
2023/08/28 02:32:45;;;;;;;2.80;1.33;;;;;;;;;;4947177;29;20035;-80
2023/08/28 02:35:11;;;;;;;2.90;1.50;;;;;;;;;;4963170;29;20035;-81
2023/08/28 02:37:37;;;;;;;5.70;1.48;;;;;;;;;;4962793;29;20039;-81
2023/08/28 02:40:03;;;;;;;6.20;1.92;;;;;;;;;;4947287;29;20058;-81
2023/08/28 02:42:29;;;;;;;5.63;1.90;;;;;;;;;;4961780;29;20114;-81
2023/08/28 02:44:54;;;;;;;4.57;1.58;;;;;;;;;;4977445;28;20137;-80
2023/08/28 02:47:20;;;;;;;4.07;1.70;;;;;;;;;;4930583;29;20069;-80
2023/08/28 02:49:47;;;;;;;3.05;1.60;;;;;;;;;;4963036;28;20067;-82
2023/08/28 02:52:12;;;;;;;4.95;1.60;;;;;;;;;;4961881;29;20112;-81
2023/08/28 02:54:38;;;;;;;6.95;1.83;;;;;;;;;;4948762;29;20062;-80
2023/08/28 02:57:04;;;;;;;7.05;1.67;;;;;;;;;;4980670;28;20586;-81
2023/08/28 02:59:31;;;;;;;3.67;1.85;;;;;;;;;;4965734;28;20518;-80
2023/08/28 03:01:56;;;;;;;5.80;1.95;;;;;;;;;;4949396;29;20031;-81
2023/08/28 03:04:22;;;;;;;4.57;1.70;;;;;;;;;;4945447;29;20063;-80
2023/08/28 03:06:47;;;;;;;5.30;2.15;;;;;;;;;;4962547;29;20042;-81
2023/08/28 03:09:13;;;;;;;3.95;2.00;;;;;;;;;;4963600;28;20039;-79
2023/08/28 03:11:38;;;;;;;2.95;1.70;;;;;;;;;;4963729;29;20035;-81
2023/08/28 03:14:04;;;;;;;3.88;2.15;;;;;;;;;;4962218;29;20045;-80
2023/08/28 03:16:30;;;;;;;4.43;1.80;;;;;;;;;;4932399;29;20122;-81
2023/08/28 03:18:57;;;;;;;3.08;1.88;;;;;;;;;;4964594;28;20030;-81
2023/08/28 03:21:23;;;;;;;3.67;1.92;;;;;;;;;;4946904;29;20054;-80
2023/08/28 03:23:48;;;;;;;4.07;2.30;;;;;;;;;;4963596;29;20031;-82
2023/08/28 03:26:14;;;;;;;3.95;2.00;;;;;;;;;;4963597;28;20399;-82
2023/08/28 03:28:39;;;;;;;4.03;2.10;;;;;;;;;;4963361;28;20035;-81
2023/08/28 03:31:05;;;;;;;5.32;2.28;;;;;;;;;;4965910;29;20048;-81
2023/08/28 03:33:31;;;;;;;5.95;2.28;;;;;;;;;;4958232;29;20035;-81
2023/08/28 03:35:57;;;;;;;3.58;1.80;;;;;;;;;;4962028;28;20031;-82
2023/08/28 03:38:22;;;;;;;4.13;2.00;;;;;;;;;;4979609;28;20043;-80
2023/08/28 03:40:48;;;;;;;4.95;2.00;;;;;;;;;;4979942;28;20043;-81
2023/08/28 03:43:14;;;;;;;4.68;1.83;;;;;;;;;;4980076;28;20019;-81
2023/08/28 03:45:40;;;;;;;5.78;1.80;;;;;;;;;;4996278;28;20110;-80
2023/08/28 03:48:06;;;;;;;6.68;2.13;;;;;;;;;;4976776;28;20046;-80
2023/08/28 03:50:31;;;;;;;4.65;1.98;;;;;;;;;;4967769;28;20373;-80
2023/08/28 03:52:57;;;;;;;4.20;1.90;;;;;;;;;;4949661;29;20035;-81
2023/08/28 03:55:23;;;;;;;4.90;2.13;;;;;;;;;;4931144;29;20075;-81
2023/08/28 03:57:49;;;;;;;4.20;2.10;;;;;;;;;;5006795;23;20194;-77
2023/08/28 04:00:15;;;;;;;4.32;1.75;;;;;;;;;;4947962;29;20504;-78
2023/08/28 04:02:41;;;;;;;5.30;2.05;;;;;;;;;;4945318;29;20062;-77
2023/08/28 04:05:07;;;;;;;4.68;2.03;;;;;;;;;;4962981;29;20388;-77
2023/08/28 04:07:35;;;;;;;6.93;2.28;;;;;;;;;;4958868;29;20590;-78
2023/08/28 04:10:04;;;;;;;4.57;2.03;;;;;;;;;;4956864;29;20031;-77
2023/08/28 04:12:31;;;;;;;5.30;2.42;;;;;;;;;;4959584;29;20035;-76
2023/08/28 04:14:57;;;;;;;3.05;1.80;;;;;;;;;;4943306;29;20097;-78
2023/08/28 04:17:23;;;;;;;3.65;1.80;;;;;;;;;;4963661;29;20050;-77
2023/08/28 04:19:50;;;;;;;3.53;2.00;;;;;;;;;;4929211;29;20046;-77
2023/08/28 04:22:16;;;;;;;6.70;2.30;;;;;;;;;;4960209;28;20039;-79
2023/08/28 04:24:43;;;;;;;5.13;2.17;;;;;;;;;;4928343;29;20073;-76
2023/08/28 04:27:09;;;;;;;5.15;2.15;;;;;;;;;;4942955;29;20062;-78
2023/08/28 04:29:35;;;;;;;6.88;2.25;;;;;;;;;;4926319;29;20039;-77
2023/08/28 04:32:02;;;;;;;5.43;1.95;;;;;;;;;;4925262;29;20131;-78
2023/08/28 04:34:28;;;;;;;8.75;2.33;;;;;;;;;;4942696;29;20066;-78
2023/08/28 04:36:54;;;;;;;8.25;2.80;;;;;;;;;;4957724;29;20042;-78
2023/08/28 04:39:22;;;;;;;4.75;2.05;;;;;;;;;;4962379;28;20075;-78
2023/08/28 04:41:54;;;;;;;4.78;2.10;;;;;;;;;;4964485;29;20042;-77
2023/08/28 04:44:20;;;;;;;4.35;2.17;;;;;;;;;;4966298;29;20032;-79
2023/08/28 04:46:46;;;;;;;5.70;1.90;;;;;;;;;;4964803;29;20046;-77
2023/08/28 04:49:12;;;;;;;3.35;1.83;;;;;;;;;;4964367;28;20033;-77
2023/08/28 04:51:37;;;;;;;6.13;1.92;;;;;;;;;;4946611;29;20122;-77
2023/08/28 04:54:03;;;;;;;4.82;2.15;;;;;;;;;;4960732;29;20055;-78
2023/08/28 04:56:28;;;;;;;8.38;1.98;;;;;;;;;;4961019;29;20062;-76
2023/08/28 04:58:54;;;;;;;5.45;2.00;;;;;;;;;;4979642;28;20063;-77
2023/08/28 05:01:20;;;;;;;4.45;1.88;;;;;;;;;;4960809;28;20031;-78
2023/08/28 05:03:47;;;;;;;6.28;1.77;;;;;;;;;;4947538;29;20043;-78
2023/08/28 05:06:13;;;;;;;3.97;1.95;;;;;;;;;;4952957;29;20031;-78
2023/08/28 05:08:39;;;;;;;6.22;2.58;;;;;;;;;;4969404;28;20039;-78
2023/08/28 05:11:05;;;;;;;4.85;2.05;;;;;;;;;;4951808;29;20046;-77
2023/08/28 05:13:31;;;;;;;6.03;1.65;;;;;;;;;;4969036;28;20054;-78
2023/08/28 05:15:58;;;;;;;4.47;1.83;;;;;;;;;;4972152;28;20046;-78
2023/08/28 05:18:26;;;;;;;4.35;1.88;;;;;;;;;;4970444;28;20043;-78
2023/08/28 05:20:51;;;;;;;8.07;2.00;;;;;;;;;;4970366;29;20151;-77
2023/08/28 05:23:25;;;;;;;4.68;2.08;;;;;;;;;;4987371;28;20031;-80
2023/08/28 05:25:56;;;;;;;3.92;1.90;;;;;;;;;;4968219;29;20075;-77
2023/08/28 05:28:22;;;;;;;3.63;1.90;;;;;;;;;;4969166;29;20031;-78
2023/08/28 05:30:48;;;;;;;4.00;1.80;;;;;;;;;;4932580;29;20058;-78
2023/08/28 05:33:14;;;;;;;3.55;1.60;;;;;;;;;;4950357;29;20038;-77
2023/08/28 05:35:41;;;;;;;3.90;2.08;;;;;;;;;;4932353;29;20050;-78
2023/08/28 05:38:06;;;;;;;4.10;1.70;;;;;;;;;;4932996;29;20100;-77
2023/08/28 05:40:32;;;;;;;4.70;2.10;;;;;;;;;;4948740;29;20054;-77
2023/08/28 05:42:58;;;;;;;5.57;1.65;;;;;;;;;;4932507;29;20497;-77
2023/08/28 05:45:27;;;;;;;4.03;1.95;;;;;;;;;;4962658;29;20035;-77
2023/08/28 05:47:53;;;;;;;6.68;2.00;;;;;;;;;;4961392;28;20069;-78
2023/08/28 05:50:20;;;;;;;3.80;1.92;;;;;;;;;;4961303;28;20043;-77
2023/08/28 05:52:47;;;;;;;5.13;2.30;;;;;;;;;;4929638;29;20126;-77
2023/08/28 05:55:13;;;;;;;4.05;2.05;;;;;;;;;;4964729;29;20038;-78
2023/08/28 05:57:41;;;;;;;3.70;2.00;;;;;;;;;;4935204;29;20578;-77
2023/08/28 06:00:08;;;;;;;7.40;2.63;;;;;;;;;;4967962;28;20031;-78
2023/08/28 06:02:41;;;;;;;5.55;2.72;;;;;;;;;;4966450;29;20031;-78
2023/08/28 06:05:08;;;;;;;4.45;2.20;;;;;;;;;;4948098;29;20080;-77
2023/08/28 06:07:34;;;;;;;10.38;2.88;;;;;;;;;;4947096;29;20035;-77
2023/08/28 06:10:01;;;;;;;5.60;2.85;;;;;;;;;;4946106;29;20039;-77
2023/08/28 06:12:27;;;;;;;9.02;3.42;;;;;;;;;;4962867;29;20031;-77
2023/08/28 06:14:52;;;;;;;7.15;2.60;;;;;;;;;;4962947;29;20185;-77
2023/08/28 06:17:18;;;;;;;12.38;2.70;;;;;;;;;;4929962;29;20031;-78
2023/08/28 06:19:44;;;;;;;6.78;3.03;;;;;;;;;;4963021;29;20481;-78
2023/08/28 06:22:12;;;;;;;6.80;2.80;;;;;;;;;;4945942;29;20035;-77
2023/08/28 06:24:42;;;;;;;7.85;2.63;;;;;;;;;;4945912;29;20035;-77
2023/08/28 06:27:08;;;;;;;7.53;2.97;;;;;;;;;;4960711;29;20483;-77
2023/08/28 06:29:34;;;;;;;8.43;3.10;;;;;;;;;;4942692;29;20035;-77
2023/08/28 06:32:00;;;;;;;6.40;2.53;;;;;;;;;;4943419;29;20463;-78
2023/08/28 06:34:26;;;;;;;6.47;2.05;;;;;;;;;;4944345;29;20038;-77
2023/08/28 06:36:53;;;;;;;4.60;2.20;;;;;;;;;;4961154;28;20042;-77
2023/08/28 06:39:19;;;;;;;5.88;2.45;;;;;;;;;;4961612;29;20035;-77
2023/08/28 06:41:45;;;;;;;12.02;2.85;;;;;;;;;;4946213;29;20490;-77
2023/08/28 06:44:11;;;;;;;8.13;2.47;;;;;;;;;;4963030;29;20109;-77
2023/08/28 06:46:37;;;;;;;5.85;2.40;;;;;;;;;;4961767;29;20103;-77
2023/08/28 06:49:03;;;;;;;9.90;3.72;;;;;;;;;;4928324;29;20059;-76
2023/08/28 06:51:31;;;;;;;5.05;2.63;;;;;;;;;;4962092;29;20416;-77
2023/08/28 06:53:56;;;;;;;5.22;2.58;;;;;;;;;;4930823;29;20039;-77
2023/08/28 06:56:22;;;;;;;9.50;2.47;;;;;;;;;;4945321;29;20549;-78
2023/08/28 06:58:48;;;;;;;6.73;2.40;;;;;;;;;;4903116;29;1329349;-77
2023/08/28 07:01:15;;;;;;;4.70;2.33;;;;;;;;;;4950622;28;20322;-77
2023/08/28 07:03:40;;;;;;;13.07;2.55;;;;;;;;;;4963461;29;20031;-77
2023/08/28 07:06:06;;;;;;;6.50;2.40;;;;;;;;;;4961432;29;20573;-78
2023/08/28 07:08:32;;;;;;;6.47;3.03;;;;;;;;;;4961803;29;20109;-77
2023/08/28 07:10:59;;;;;;;7.50;2.63;;;;;;;;;;4945495;29;20399;-78
2023/08/28 07:13:24;;;;;;;9.90;3.00;;;;;;;;;;4962900;29;20040;-77
2023/08/28 07:15:50;;;;;;;6.10;2.30;;;;;;;;;;4929879;29;20055;-77
2023/08/28 07:18:16;;;;;;;5.43;2.17;;;;;;;;;;4962014;29;20062;-77
2023/08/28 07:20:44;;;;;;;4.85;2.30;;;;;;;;;;4963363;29;20094;-77
2023/08/28 07:23:10;;;;;;;6.35;2.50;;;;;;;;;;4962444;29;20422;-77
2023/08/28 07:25:39;;;;;;;5.57;2.40;;;;;;;;;;4945420;29;20152;-76
2023/08/28 07:28:05;;;;;;;5.18;2.10;;;;;;;;;;4961336;29;20039;-77
2023/08/28 07:30:31;;;;;;;8.93;2.30;;;;;;;;;;4960861;29;20163;-76
2023/08/28 07:32:58;;;;;;;13.63;4.05;;;;;;;;;;4960626;29;20043;-76
2023/08/28 07:35:23;;;;;;;7.40;2.50;;;;;;;;;;4960344;29;20106;-77
2023/08/28 07:37:49;;;;;;;7.25;2.70;;;;;;;;;;4960606;28;20043;-77
2023/08/28 07:40:15;;;;;;;5.57;2.63;;;;;;;;;;4960798;29;20047;-77
2023/08/28 07:42:40;;;;;;;5.25;2.67;;;;;;;;;;4961580;29;20035;-78
2023/08/28 07:45:06;;;;;;;6.70;2.58;;;;;;;;;;4961175;28;20031;-77
2023/08/28 07:47:32;;;;;;;5.32;2.40;;;;;;;;;;4960218;29;20043;-77
2023/08/28 07:49:58;;;;;;;9.40;2.30;;;;;;;;;;4960385;29;20553;-77
2023/08/28 07:52:26;;;;;;;;;;;;;;;;;;4962178;29;20043;-77
2023/08/28 07:54:52;;;;;;;4.43;2.17;;;;;;;;;;4947927;28;19996;-77
2023/08/28 07:57:23;;;;;;;10.00;2.88;;;;;;;;;;4962477;29;20115;-77
2023/08/28 07:59:49;;;;;;;4.35;2.17;;;;;;;;;;4965012;28;20039;-78
2023/08/28 08:02:14;;;;;;;8.10;2.50;;;;;;;;;;4964045;29;20071;-77
2023/08/28 08:04:41;;;;;;;4.85;2.42;;;;;;;;;;4962837;28;20039;-78
2023/08/28 08:07:07;;;;;;;4.90;2.78;;;;;;;;;;4946859;29;20038;-78
2023/08/28 08:09:33;;;;;;;8.35;2.55;;;;;;;;;;4960842;28;20394;-78
2023/08/28 08:11:58;;;;;;;4.10;2.28;;;;;;;;;;4929966;29;20037;-78
2023/08/28 08:14:24;;;;;;;7.30;2.20;;;;;;;;;;4961858;28;20117;-77
2023/08/28 08:16:52;;;;;;;12.85;2.30;;;;;;;;;;4961000;29;20035;-77
2023/08/28 08:19:18;;;;;;;4.97;2.20;;;;;;;;;;4960382;29;20070;-78
2023/08/28 08:21:43;;;;;;;7.65;2.90;;;;;;;;;;4960209;28;20032;-77
2023/08/28 08:24:09;;;;;;;4.68;2.03;;;;;;;;;;4945739;29;20050;-78
2023/08/28 08:26:35;;;;;;;7.68;2.10;;;;;;;;;;4946867;29;20256;-78
2023/08/28 08:29:00;;;;;;;4.05;1.90;;;;;;;;;;4966330;29;20059;-77
2023/08/28 08:31:26;;;;;;;3.58;1.90;;;;;;;;;;4963059;29;20513;-78
2023/08/28 08:33:51;;;;;;;5.00;2.45;;;;;;;;;;4960906;28;20122;-77
2023/08/28 08:36:19;;;;;;;7.75;2.10;;;;;;;;;;4968344;29;20031;-78
2023/08/28 08:38:46;;;;;;;5.75;2.42;;;;;;;;;;4985031;28;20045;-77
2023/08/28 08:41:12;;;;;;;4.32;2.00;;;;;;;;;;4938101;29;20046;-78
2023/08/28 08:43:39;;;;;;;6.00;2.28;;;;;;;;;;4939712;29;20051;-78
2023/08/28 08:46:07;;;;;;;4.05;1.73;;;;;;;;;;4972566;29;20066;-79
2023/08/28 08:48:36;;;;;;;4.65;1.73;;;;;;;;;;4970515;29;20059;-78
2023/08/28 08:51:06;;;;;;;3.67;1.63;;;;;;;;;;4954530;29;20039;-77
2023/08/28 08:54:12;;;;;;;4.10;1.63;;;;;;;;;;4938932;29;20035;-78
2023/08/28 08:56:40;;;;;;;6.07;2.25;;;;;;;;;;4910010;29;20063;-78
2023/08/28 08:59:06;;;;;;;3.55;1.58;;;;;;;;;;4892839;29;20036;-78
2023/08/28 09:01:33;;;;;;;4.35;1.63;;;;;;;;;;4892629;29;20496;-77
2023/08/28 09:04:03;;;;;;;3.47;1.52;;;;;;;;;;4903764;29;20065;-78
2023/08/28 09:06:32;;;;;;;5.22;1.48;;;;;;;;;;4887594;29;20043;-79
2023/08/28 09:08:58;;;;;;;3.20;1.45;;;;;;;;;;4897273;29;20045;-79
2023/08/28 09:11:23;;;;;;;4.82;1.70;;;;;;;;;;4898089;29;20396;-78
2023/08/28 09:13:51;;;;;;;6.93;1.80;;;;;;;;;;4887334;29;20041;-78
2023/08/28 09:16:19;;;;;;;4.15;1.45;;;;;;;;;;4906167;29;20062;-78
2023/08/28 09:18:46;;;;;;;3.15;1.30;;;;;;;;;;4902148;29;20068;-78
2023/08/28 09:21:12;;;;;;;3.63;1.33;;;;;;;;;;4885784;29;20132;-78
2023/08/28 09:23:50;;;;;;;3.00;1.20;;;;;;;;;;4900716;29;20040;-79
2023/08/28 09:26:17;;;;;;;3.63;1.40;;;;;;;;;;4909853;29;20033;-79
2023/08/28 09:28:57;;;;;;;5.80;1.73;;;;;;;;;;4965780;29;20093;-78
2023/08/28 09:31:26;;;;;;;4.50;1.30;;;;;;;;;;4965535;29;20035;-78
2023/08/28 09:33:52;;;;;;;5.15;1.40;;;;;;;;;;4952202;29;20054;-78
2023/08/28 09:36:18;;;;;;;4.28;1.40;;;;;;;;;;4966670;29;20035;-80
2023/08/28 09:38:44;;;;;;;5.05;1.20;;;;;;;;;;4966375;29;20130;-80
2023/08/28 09:41:11;;;;;;;5.30;1.38;;;;;;;;;;4967099;29;20042;-79
2023/08/28 09:43:37;;;;;;;4.13;1.00;;;;;;;;;;4965679;29;20035;-79
2023/08/28 09:46:03;;;;;;;2.55;1.02;;;;;;;;;;4966214;29;20082;-79
2023/08/28 09:48:31;;;;;;;3.95;0.98;;;;;;;;;;4965906;29;20027;-78
2023/08/28 09:50:59;;;;;;;3.90;1.10;;;;;;;;;;4961475;29;20499;-78
2023/08/28 09:53:26;;;;;;;5.93;1.00;;;;;;;;;;4929403;29;20148;-79
2023/08/28 09:55:52;;;;;;;3.13;1.27;;;;;;;;;;4945978;29;20028;-79
2023/08/28 09:58:23;;;;;;;4.25;1.20;;;;;;;;;;4963815;29;20380;-80
2023/08/28 10:00:50;;;;;;;2.50;0.90;;;;;;;;;;4968453;28;20046;-78
2023/08/28 10:03:16;;;;;;;6.90;1.40;;;;;;;;;;4969114;29;20550;-79
2023/08/28 10:05:43;;;;;;;4.47;0.95;;;;;;;;;;4970011;28;20065;-79
2023/08/28 10:08:10;;;;;;;5.07;1.10;;;;;;;;;;4965537;29;20490;-79
2023/08/28 10:10:37;;;;;;;1.80;0.90;;;;;;;;;;4948756;29;20054;-79
2023/08/28 10:13:05;;;;;;;4.55;1.40;;;;;;;;;;4962593;29;20036;-79
2023/08/28 10:15:32;;;;;;;3.38;1.20;;;;;;;;;;4931629;29;20027;-79
2023/08/28 10:18:03;;;;;;;5.05;1.50;;;;;;;;;;4963372;28;20035;-82
2023/08/28 10:20:30;;;;;;;10.25;1.60;;;;;;;;;;4961829;29;20036;-79
2023/08/28 10:22:56;;;;;;;5.65;1.38;;;;;;;;;;4960854;28;20062;-79
2023/08/28 10:25:23;;;;;;;5.35;1.23;;;;;;;;;;4962018;29;20030;-80
2023/08/28 10:27:50;;;;;;;6.68;1.60;;;;;;;;;;4945651;29;20142;-81
2023/08/28 10:30:16;;;;;;;5.50;1.38;;;;;;;;;;4947450;29;20042;-79
2023/08/28 10:32:42;;;;;;;4.53;1.60;;;;;;;;;;4963399;28;20041;-79
2023/08/28 10:35:09;;;;;;;4.22;1.40;;;;;;;;;;4931005;29;20035;-79
2023/08/28 10:37:37;;;;;;;5.13;1.77;;;;;;;;;;4945215;29;20455;-80
2023/08/28 10:40:03;;;;;;;4.23;1.53;;;;;;;;;;4963190;28;20122;-80
2023/08/28 10:42:29;;;;;;;7.25;1.60;;;;;;;;;;4930793;29;20818;-79
2023/08/28 10:44:59;;;;;;;5.65;1.45;;;;;;;;;;4945703;29;20462;-79
2023/08/28 10:47:26;;;;;;;6.00;1.42;;;;;;;;;;4946024;29;20430;-80
2023/08/28 10:49:58;;;;;;;5.00;1.98;;;;;;;;;;4929734;29;20031;-79
2023/08/28 10:52:28;;;;;;;6.03;1.80;;;;;;;;;;4945027;29;20518;-79
2023/08/28 10:55:06;;;;;;;5.78;1.83;;;;;;;;;;4963679;29;20050;-78
2023/08/28 10:57:34;;;;;;;7.72;1.80;;;;;;;;;;4961947;29;20041;-79
2023/08/28 11:00:19;;;;;;;3.03;1.65;;;;;;;;;;4962328;29;20035;-79
2023/08/28 11:03:10;;;;;;;3.05;1.42;;;;;;;;;;4962594;28;20601;-79
2023/08/28 11:05:37;;;;;;;3.25;1.30;;;;;;;;;;4961032;29;20738;-80
2023/08/28 11:08:11;;;;;;;2.78;1.20;;;;;;;;;;4962800;29;20087;-79
2023/08/28 11:10:38;;;;;;;4.28;1.40;;;;;;;;;;4961983;29;20047;-78
2023/08/28 11:13:08;;;;;;;3.33;1.23;;;;;;;;;;4962156;29;20031;-81
2023/08/28 11:15:43;;;;;;;5.25;1.20;;;;;;;;;;4961775;29;20032;-80
2023/08/28 11:18:15;;;;;;;3.83;1.10;;;;;;;;;;4933653;29;20031;-79
2023/08/28 11:20:42;;;;;;;4.55;1.40;;;;;;;;;;4948640;29;20031;-80
2023/08/28 11:23:18;;;;;;;3.95;1.30;;;;;;;;;;4964961;29;20407;-79
2023/08/28 11:25:44;;;;;;;4.40;1.38;;;;;;;;;;4964934;28;20023;-81
2023/08/28 11:28:26;;;;;;;6.90;1.55;;;;;;;;;;4963413;29;20118;-80
2023/08/28 11:30:52;;;;;;;4.70;1.35;;;;;;;;;;4932790;29;20038;-78
2023/08/28 11:33:19;;;;;;;4.72;1.38;;;;;;;;;;4948207;29;20487;-79
2023/08/28 11:35:46;;;;;;;4.65;1.60;;;;;;;;;;4932307;29;20035;-79
2023/08/28 11:38:12;;;;;;;3.38;1.30;;;;;;;;;;4931628;29;20039;-79
2023/08/28 11:40:37;;;;;;;4.03;1.30;;;;;;;;;;4966268;29;20031;-81
2023/08/28 11:43:06;;;;;;;4.45;1.70;;;;;;;;;;4979292;28;20039;-80
2023/08/28 11:45:32;;;;;;;5.95;1.67;;;;;;;;;;4966526;29;20055;-79
2023/08/28 11:48:03;;;;;;;6.75;2.05;;;;;;;;;;4966525;28;20399;-79
2023/08/28 11:50:32;;;;;;;8.55;1.65;;;;;;;;;;4951533;29;20039;-79
2023/08/28 11:52:57;;;;;;;7.28;1.17;;;;;;;;;;4948632;29;20510;-79
2023/08/28 11:55:25;;;;;;;3.20;1.27;;;;;;;;;;4950055;29;20047;-79
2023/08/28 11:57:51;;;;;;;3.22;1.25;;;;;;;;;;4931981;29;20031;-79
2023/08/28 12:00:17;;;;;;;3.50;1.35;;;;;;;;;;4962739;28;20043;-79
2023/08/28 12:02:48;;;;;;;2.63;1.00;;;;;;;;;;4952325;29;20035;-80
2023/08/28 12:05:20;;;;;;;3.13;1.30;;;;;;;;;;4935660;29;20127;-80
2023/08/28 12:07:47;;;;;;;3.47;1.33;;;;;;;;;;4966344;29;20038;-80
2023/08/28 12:10:15;;;;;;;2.00;1.10;;;;;;;;;;4969826;28;20059;-80
2023/08/28 12:12:43;;;;;;;5.82;1.70;;;;;;;;;;4965986;29;20138;-79
2023/08/28 12:15:09;;;;;;;4.15;1.80;;;;;;;;;;4933243;29;20111;-79
2023/08/28 12:17:36;;;;;;;6.70;1.48;;;;;;;;;;4971351;29;20114;-79
2023/08/28 12:20:09;;;;;;;4.20;1.52;;;;;;;;;;4964382;28;20098;-80
2023/08/28 12:22:41;;;;;;;4.57;1.75;;;;;;;;;;4962071;28;20081;-79
2023/08/28 12:25:08;;;;;;;4.63;1.90;;;;;;;;;;4960325;29;20031;-79
2023/08/28 12:27:34;;;;;;;3.22;1.27;;;;;;;;;;4944637;29;20035;-79
2023/08/28 12:30:00;;;;;;;5.70;1.70;;;;;;;;;;4943965;29;20509;-79
2023/08/28 12:32:27;;;;;;;6.55;1.60;;;;;;;;;;4960943;29;20039;-79
2023/08/28 12:34:53;;;;;;;3.10;1.30;;;;;;;;;;4963243;29;20039;-80
2023/08/28 12:37:19;;;;;;;3.72;1.10;;;;;;;;;;4948514;29;20042;-79
2023/08/28 12:39:46;;;;;;;3.65;1.60;;;;;;;;;;4949521;29;20046;-79
2023/08/28 12:42:14;;;;;;;4.72;1.60;;;;;;;;;;4967431;28;20038;-79
2023/08/28 12:44:43;;;;;;;4.25;1.70;;;;;;;;;;4965527;29;20173;-77
2023/08/28 12:47:09;;;;;;;4.28;1.60;;;;;;;;;;4966839;29;20095;-78
2023/08/28 12:49:35;;;;;;;4.68;1.45;;;;;;;;;;4964473;29;20043;-78
2023/08/28 12:52:01;;;;;;;3.38;1.30;;;;;;;;;;4932748;29;20042;-78
2023/08/28 12:54:27;;;;;;;2.88;1.30;;;;;;;;;;4962511;28;20135;-78
2023/08/28 12:56:53;;;;;;;7.70;1.35;;;;;;;;;;4929080;29;20035;-79
2023/08/28 12:59:19;;;;;;;2.53;1.10;;;;;;;;;;4963930;28;20042;-79
2023/08/28 13:01:45;;;;;;;3.95;1.30;;;;;;;;;;4963908;29;20136;-79
2023/08/28 13:04:10;;;;;;;3.50;1.10;;;;;;;;;;4961671;28;20179;-78
2023/08/28 13:06:39;;;;;;;11.48;2.13;;;;;;;;;;4957291;29;20031;-78
2023/08/28 13:09:05;;;;;;;3.95;1.50;;;;;;;;;;4958150;28;20509;-78
2023/08/28 13:11:30;;;;;;;2.10;1.20;;;;;;;;;;4958519;29;20048;-79
2023/08/28 13:13:58;;;;;;;3.40;1.30;;;;;;;;;;4957958;29;20039;-78
2023/08/28 13:16:24;;;;;;;6.78;1.83;;;;;;;;;;4957697;29;20032;-79
2023/08/28 13:18:49;;;;;;;4.38;1.27;;;;;;;;;;4959641;29;20502;-78
2023/08/28 13:21:15;;;;;;;7.18;1.50;;;;;;;;;;4959168;29;20027;-79
2023/08/28 13:23:41;;;;;;;4.93;1.52;;;;;;;;;;4959258;29;20043;-78
2023/08/28 13:26:07;;;;;;;4.18;1.52;;;;;;;;;;4959874;29;20031;-79
2023/08/28 13:28:32;;;;;;;6.60;1.80;;;;;;;;;;4959774;29;20050;-79
2023/08/28 13:30:58;;;;;;;4.55;1.52;;;;;;;;;;4960630;29;20058;-79
2023/08/28 13:33:25;;;;;;;4.22;1.55;;;;;;;;;;4958759;28;20031;-78
2023/08/28 13:35:51;;;;;;;4.13;1.25;;;;;;;;;;4962038;29;20491;-79
2023/08/28 13:38:17;;;;;;;5.85;1.48;;;;;;;;;;4960063;29;20035;-79
2023/08/28 13:40:45;;;;;;;5.85;1.55;;;;;;;;;;4960915;29;20023;-79
2023/08/28 13:43:11;;;;;;;5.85;1.23;;;;;;;;;;4961015;29;20070;-79
2023/08/28 13:45:36;;;;;;;4.70;1.40;;;;;;;;;;4945199;29;20051;-79
2023/08/28 13:48:03;;;;;;;5.57;1.40;;;;;;;;;;4961707;29;20136;-80
2023/08/28 13:50:28;;;;;;;4.10;1.40;;;;;;;;;;4961084;29;20035;-79
2023/08/28 13:52:54;;;;;;;5.97;1.63;;;;;;;;;;4961482;29;20039;-79
2023/08/28 13:55:20;;;;;;;3.88;1.60;;;;;;;;;;4961612;29;20043;-80
2023/08/28 13:57:49;;;;;;;7.53;2.13;;;;;;;;;;4946369;29;20038;-80
2023/08/28 14:00:16;;;;;;;5.95;2.40;;;;;;;;;;4944532;29;20054;-80
2023/08/28 14:02:42;;;;;;;5.43;1.90;;;;;;;;;;4928718;29;20039;-79
2023/08/28 14:05:09;;;;;;;3.88;1.67;;;;;;;;;;4960605;29;20130;-80
2023/08/28 14:07:35;;;;;;;3.72;1.70;;;;;;;;;;4960519;29;20031;-80
2023/08/28 14:10:03;;;;;;;5.50;1.73;;;;;;;;;;4960545;29;20067;-79
2023/08/28 14:12:31;;;;;;;4.43;1.35;;;;;;;;;;4960664;28;20043;-79
2023/08/28 14:14:59;;;;;;;2.80;1.20;;;;;;;;;;4961359;28;20086;-80
2023/08/28 14:17:26;;;;;;;3.97;1.30;;;;;;;;;;4961614;28;20039;-79
2023/08/28 14:19:51;;;;;;;3.72;1.30;;;;;;;;;;4960380;29;20316;-79
2023/08/28 14:22:17;;;;;;;3.63;1.35;;;;;;;;;;4959521;29;20091;-79
2023/08/28 14:24:42;;;;;;;3.80;1.48;;;;;;;;;;4960945;28;20035;-80
2023/08/28 14:27:09;;;;;;;3.53;1.35;;;;;;;;;;4967089;29;20094;-79
2023/08/28 14:29:35;;;;;;;2.88;1.15;;;;;;;;;;4971871;28;20468;-79
2023/08/28 14:32:00;;;;;;;3.45;1.30;;;;;;;;;;4960255;28;20069;-79
2023/08/28 14:34:26;;;;;;;3.58;1.30;;;;;;;;;;4958958;28;20042;-78
2023/08/28 14:36:52;;;;;;;5.57;2.20;;;;;;;;;;4957685;29;20034;-78
2023/08/28 14:39:17;;;;;;;3.58;1.50;;;;;;;;;;4957769;29;20463;-78
2023/08/28 14:41:43;;;;;;;2.25;1.10;;;;;;;;;;4956407;29;20059;-78
2023/08/28 14:44:09;;;;;;;5.38;1.60;;;;;;;;;;4940303;29;20027;-78